Home > Products > Valid Products > TAF

000
FTUS42 KMFL 231131
TAFFLL
TAF
KFLL 231131Z 2312/2412 13012KT P6SM VCSH SCT040
     FM231400 14016G26KT P6SM VCSH SCT018 BKN060
     FM232100 15012G18KT P6SM VCSH SCT025 BKN050=



000
FTUS42 KMFL 231131
TAFMIA
TAF
KMIA 231131Z 2312/2412 11008KT P6SM VCSH SCT035
     FM231400 13016G26KT P6SM VCSH SCT018 BKN060
     FM232100 15011G18KT P6SM VCSH SCT025 BKN050=



000
FTUS42 KMFL 231131
TAFAPF
TAF
KAPF 231131Z 2312/2412 11007KT P6SM BKN025
     FM231300 12011KT P6SM SCT015 BKN040
     FM231500 14014G21KT P6SM VCSH SCT015 BKN040
     FM232100 16010KT P6SM VCSH SCT025 BKN060=



000
FTUS42 KMFL 231131
TAFPBI
TAF
KPBI 231131Z 2312/2412 13014KT P6SM VCSH SCT050
     FM231400 14017G27KT P6SM VCSH SCT020 BKN050
     FM231900 15013G18KT P6SM VCSH SCT025 BKN050=



000
FTUS42 KMFL 231131
TAFFLL
TAF
KFLL 231131Z 2312/2412 13012KT P6SM VCSH SCT040
     FM231400 14016G26KT P6SM VCSH SCT018 BKN060
     FM232100 15012G18KT P6SM VCSH SCT025 BKN050=



000
FTUS42 KMFL 231131
TAFPBI
TAF
KPBI 231131Z 2312/2412 13014KT P6SM VCSH SCT050
     FM231400 14017G27KT P6SM VCSH SCT020 BKN050
     FM231900 15013G18KT P6SM VCSH SCT025 BKN050=



000
FTUS42 KMFL 231131
TAFMIA
TAF
KMIA 231131Z 2312/2412 11008KT P6SM VCSH SCT035
     FM231400 13016G26KT P6SM VCSH SCT018 BKN060
     FM232100 15011G18KT P6SM VCSH SCT025 BKN050=



000
FTUS42 KMFL 231131
TAFAPF
TAF
KAPF 231131Z 2312/2412 11007KT P6SM BKN025
     FM231300 12011KT P6SM SCT015 BKN040
     FM231500 14014G21KT P6SM VCSH SCT015 BKN040
     FM232100 16010KT P6SM VCSH SCT025 BKN060=



000
FTUS42 KMFL 230914 AAA
TAFMIA
TAF AMD
KMIA 230914Z 2309/2406 11011G19KT P6SM VCSH FEW020 BKN035
     FM231400 13016G26KT P6SM VCSH SCT018 SCT040 BKN060=



000
FTUS42 KMFL 230914 AAA
TAFMIA
TAF AMD
KMIA 230914Z 2309/2406 11011G19KT P6SM VCSH FEW020 BKN035
     FM231400 13016G26KT P6SM VCSH SCT018 SCT040 BKN060=



000
FTUS42 KMFL 230910 AAA
TAFFLL
TAF AMD
KFLL 230910Z 2309/2406 13014G22KT P6SM VCSH SCT018 BKN035 BKN050
     FM231400 14016G26KT P6SM VCSH SCT018 BKN040 BKN060=



000
FTUS42 KMFL 230910 AAA
TAFFLL
TAF AMD
KFLL 230910Z 2309/2406 13014G22KT P6SM VCSH SCT018 BKN035 BKN050
     FM231400 14016G26KT P6SM VCSH SCT018 BKN040 BKN060=



000
FTUS42 KMFL 230907 AAA
TAFPBI
TAF AMD
KPBI 230907Z 2309/2406 13014G22KT P6SM VCSH SCT020 BKN040 BKN060
     FM231500 14017G27KT P6SM VCSH SCT020 BKN035 OVC050=



000
FTUS42 KMFL 230907 AAA
TAFPBI
TAF AMD
KPBI 230907Z 2309/2406 13014G22KT P6SM VCSH SCT020 BKN040 BKN060
     FM231500 14017G27KT P6SM VCSH SCT020 BKN035 OVC050=



000
FTUS42 KMFL 230816 AAA
TAFAPF
TAF AMD
KAPF 230816Z 2308/2406 10007KT P6SM BKN018 BKN040
      TEMPO 2309/2312 5SM BR BKN010
     FM231300 12011KT P6SM SCT015 BKN040
     FM231500 14015G23KT P6SM VCSH SCT018 BKN030=



000
FTUS42 KMFL 230816 AAA
TAFAPF
TAF AMD
KAPF 230816Z 2308/2406 10007KT P6SM BKN018 BKN040
      TEMPO 2309/2312 5SM BR BKN010
     FM231300 12011KT P6SM SCT015 BKN040
     FM231500 14015G23KT P6SM VCSH SCT018 BKN030=



000
FTUS42 KMFL 230539
TAFAPF
TAF
KAPF 230539Z 2306/2406 09007KT P6SM SCT018 BKN040
      TEMPO 2309/2312 5SM BR BKN010
     FM231500 14015G23KT P6SM VCSH SCT018 BKN030=



000
FTUS42 KMFL 230539
TAFFLL
TAF
KFLL 230539Z 2306/2406 11015G25KT P6SM VCSH SCT019 BKN035 BKN050
     FM231400 14016G26KT P6SM VCSH SCT018 BKN040 BKN060=



000
FTUS42 KMFL 230539
TAFMIA
TAF
KMIA 230539Z 2306/2406 11014G23KT P6SM SCT018 SCT025 BKN040
      TEMPO 2306/2310 SCT015 BKN025
     FM231400 13016G26KT P6SM VCSH SCT018 BKN040 BKN060=



000
FTUS42 KMFL 230539
TAFPBI
TAF
KPBI 230539Z 2306/2406 10020G30KT P6SM VCSH SCT018 BKN025 BKN035
      TEMPO 2306/2309 -SHRA BKN015 BKN025
     FM231200 12019G28KT P6SM VCSH SCT018 BKN035
     FM231500 14017G27KT P6SM VCSH SCT020 BKN035 OVC050=



000
FTUS42 KMFL 230539
TAFAPF
TAF
KAPF 230539Z 2306/2406 09007KT P6SM SCT018 BKN040
      TEMPO 2309/2312 5SM BR BKN010
     FM231500 14015G23KT P6SM VCSH SCT018 BKN030=



000
FTUS42 KMFL 230539
TAFPBI
TAF
KPBI 230539Z 2306/2406 10020G30KT P6SM VCSH SCT018 BKN025 BKN035
      TEMPO 2306/2309 -SHRA BKN015 BKN025
     FM231200 12019G28KT P6SM VCSH SCT018 BKN035
     FM231500 14017G27KT P6SM VCSH SCT020 BKN035 OVC050=



000
FTUS42 KMFL 230539
TAFMIA
TAF
KMIA 230539Z 2306/2406 11014G23KT P6SM SCT018 SCT025 BKN040
      TEMPO 2306/2310 SCT015 BKN025
     FM231400 13016G26KT P6SM VCSH SCT018 BKN040 BKN060=



000
FTUS42 KMFL 230539
TAFFLL
TAF
KFLL 230539Z 2306/2406 11015G25KT P6SM VCSH SCT019 BKN035 BKN050
     FM231400 14016G26KT P6SM VCSH SCT018 BKN040 BKN060=



000
FTUS42 KMFL 230325 AAA
TAFMIA
TAF AMD
KMIA 230325Z 2303/2324 10016G25KT P6SM SCT020 BKN035
      TEMPO 2303/2307 BKN020 OVC035
     FM231400 13016G26KT P6SM VCSH SCT035 BKN050=



000
FTUS42 KMFL 230325 AAA
TAFMIA
TAF AMD
KMIA 230325Z 2303/2324 10016G25KT P6SM SCT020 BKN035
      TEMPO 2303/2307 BKN020 OVC035
     FM231400 13016G26KT P6SM VCSH SCT035 BKN050=



000
FTUS42 KMFL 230322 AAA
TAFFLL
TAF AMD
KFLL 230322Z 2303/2324 10021G29KT P6SM VCSH SCT019 BKN035 BKN050
     FM230800 10018G27KT P6SM VCSH SCT019 BKN035
     FM231400 14016G26KT P6SM VCSH SCT035 BKN050=



000
FTUS42 KMFL 230322 AAA
TAFFLL
TAF AMD
KFLL 230322Z 2303/2324 10021G29KT P6SM VCSH SCT019 BKN035 BKN050
     FM230800 10018G27KT P6SM VCSH SCT019 BKN035
     FM231400 14016G26KT P6SM VCSH SCT035 BKN050=



000
FTUS42 KMFL 230315 AAA
TAFPBI
TAF AMD
KPBI 230315Z 2303/2324 08020G30KT P6SM VCSH SCT018 BKN025 BKN035
      TEMPO 2303/2307 BKN018 BKN025
     FM230900 10017G26KT P6SM VCSH SCT019 BKN035
     FM231500 15017G27KT P6SM VCSH BKN035 OVC050=



000
FTUS42 KMFL 230315 AAA
TAFPBI
TAF AMD
KPBI 230315Z 2303/2324 08020G30KT P6SM VCSH SCT018 BKN025 BKN035
      TEMPO 2303/2307 BKN018 BKN025
     FM230900 10017G26KT P6SM VCSH SCT019 BKN035
     FM231500 15017G27KT P6SM VCSH BKN035 OVC050=



000
FTUS42 KMFL 230309 AAA
TAFAPF
TAF AMD
KAPF 230309Z 2303/2324 08007KT P6SM SCT009 BKN050
      TEMPO 2303/2307 BKN009 BKN040
     FM230700 10006KT P6SM SCT009 BKN020
     FM231500 15018G28KT P6SM SCT035 BKN050=



000
FTUS42 KMFL 230309 AAA
TAFAPF
TAF AMD
KAPF 230309Z 2303/2324 08007KT P6SM SCT009 BKN050
      TEMPO 2303/2307 BKN009 BKN040
     FM230700 10006KT P6SM SCT009 BKN020
     FM231500 15018G28KT P6SM SCT035 BKN050=



000
FTUS42 KMFL 222331
TAFFLL
TAF
KFLL 222331Z 2300/2324 10021G28KT P6SM SCT025 OVC040
      TEMPO 2300/2304 BKN025
     FM230500 11015G22KT P6SM OVC040
     FM231400 14016G26KT P6SM SCT035 BKN050=



000
FTUS42 KMFL 222331
TAFPBI
TAF
KPBI 222331Z 2300/2324 08019G29KT P6SM VCSH SCT025 OVC040
      TEMPO 2300/2304 BKN020
     FM230600 11014G24KT P6SM SCT035 OVC050
     FM231500 15017G27KT P6SM VCSH BKN035 OVC050=



000
FTUS42 KMFL 222331
TAFAPF
TAF
KAPF 222331Z 2300/2324 08010KT P6SM OVC040
     FM231000 10006KT P6SM OVC020
     FM231500 15018G28KT P6SM SCT035 BKN050=



000
FTUS42 KMFL 222331
TAFFLL
TAF
KFLL 222331Z 2300/2324 10021G28KT P6SM SCT025 OVC040
      TEMPO 2300/2304 BKN025
     FM230500 11015G22KT P6SM OVC040
     FM231400 14016G26KT P6SM SCT035 BKN050=



000
FTUS42 KMFL 222331
TAFAPF
TAF
KAPF 222331Z 2300/2324 08010KT P6SM OVC040
     FM231000 10006KT P6SM OVC020
     FM231500 15018G28KT P6SM SCT035 BKN050=



000
FTUS42 KMFL 222331
TAFPBI
TAF
KPBI 222331Z 2300/2324 08019G29KT P6SM VCSH SCT025 OVC040
      TEMPO 2300/2304 BKN020
     FM230600 11014G24KT P6SM SCT035 OVC050
     FM231500 15017G27KT P6SM VCSH BKN035 OVC050=



000
FTUS42 KMFL 222331
TAFMIA
TAF
KMIA 222331Z 2300/2324 08017G25KT P6SM SCT025 OVC040
      TEMPO 2300/2304 BKN025
     FM230500 10012KT P6SM OVC040
     FM231400 13016G26KT P6SM SCT035 BKN050=



000
FTUS42 KMFL 222331
TAFMIA
TAF
KMIA 222331Z 2300/2324 08017G25KT P6SM SCT025 OVC040
      TEMPO 2300/2304 BKN025
     FM230500 10012KT P6SM OVC040
     FM231400 13016G26KT P6SM SCT035 BKN050=



000
FTUS42 KMFL 222046 AAA
TAFMIA
TAF AMD
KMIA 222046Z 2221/2318 08018G26KT P6SM VCSH SCT025 OVC040
     FM230200 09012KT P6SM OVC040=



000
FTUS42 KMFL 222046 AAA
TAFAPF
TAF AMD
KAPF 222046Z 2221/2318 10014G22KT P6SM BKN025 OVC040
     FM230200 08010KT P6SM OVC040=



000
FTUS42 KMFL 222046 AAA
TAFPBI
TAF AMD
KPBI 222046Z 2221/2318 08017G26KT P6SM VCSH SCT025 OVC040
     FM230200 11014G24KT P6SM OVC050=



000
FTUS42 KMFL 222046 AAA
TAFMIA
TAF AMD
KMIA 222046Z 2221/2318 08018G26KT P6SM VCSH SCT025 OVC040
     FM230200 09012KT P6SM OVC040=



000
FTUS42 KMFL 222046 AAA
TAFFLL
TAF AMD
KFLL 222046Z 2221/2318 10021G28KT P6SM VCSH SCT025 OVC040
     FM230200 11015G22KT P6SM OVC050=



000
FTUS42 KMFL 222046 AAA
TAFPBI
TAF AMD
KPBI 222046Z 2221/2318 08017G26KT P6SM VCSH SCT025 OVC040
     FM230200 11014G24KT P6SM OVC050=



000
FTUS42 KMFL 222046 AAA
TAFFLL
TAF AMD
KFLL 222046Z 2221/2318 10021G28KT P6SM VCSH SCT025 OVC040
     FM230200 11015G22KT P6SM OVC050=



000
FTUS42 KMFL 222046 AAA
TAFAPF
TAF AMD
KAPF 222046Z 2221/2318 10014G22KT P6SM BKN025 OVC040
     FM230200 08010KT P6SM OVC040=



000
FTUS42 KMFL 221730
TAFFLL
TAF
KFLL 221730Z 2218/2318 10021G28KT P6SM -RA BKN025 OVC045
     FM230200 11015G22KT P6SM OVC050=



000
FTUS42 KMFL 221730
TAFMIA
TAF
KMIA 221730Z 2218/2318 09020G26KT P6SM VCSH SCT030 BKN040 OVC060
     FM222000 08019G27KT P6SM VCSH BKN025 OVC040
     FM230200 09012KT P6SM OVC040=



000
FTUS42 KMFL 221730
TAFAPF
TAF
KAPF 221730Z 2218/2318 08013KT P6SM BKN028 BKN040
     FM222000 09014G23KT P6SM BKN025 OVC030
     FM230200 08010KT P6SM OVC040=



000
FTUS42 KMFL 221730
TAFPBI
TAF
KPBI 221730Z 2218/2318 08021G26KT P6SM VCSH SCT027 OVC040
     FM222000 09017G27KT P6SM VCSH BKN025 OVC040
     FM230200 11014G24KT P6SM OVC050=



000
FTUS42 KMFL 221730
TAFMIA
TAF
KMIA 221730Z 2218/2318 09020G26KT P6SM VCSH SCT030 BKN040 OVC060
     FM222000 08019G27KT P6SM VCSH BKN025 OVC040
     FM230200 09012KT P6SM OVC040=



000
FTUS42 KMFL 221730
TAFPBI
TAF
KPBI 221730Z 2218/2318 08021G26KT P6SM VCSH SCT027 OVC040
     FM222000 09017G27KT P6SM VCSH BKN025 OVC040
     FM230200 11014G24KT P6SM OVC050=



000
FTUS42 KMFL 221730
TAFAPF
TAF
KAPF 221730Z 2218/2318 08013KT P6SM BKN028 BKN040
     FM222000 09014G23KT P6SM BKN025 OVC030
     FM230200 08010KT P6SM OVC040=



000
FTUS42 KMFL 221730
TAFFLL
TAF
KFLL 221730Z 2218/2318 10021G28KT P6SM -RA BKN025 OVC045
     FM230200 11015G22KT P6SM OVC050=



000
FTUS42 KMFL 221511 AAA
TAFFLL
TAF AMD
KFLL 221511Z 2215/2312 09018G26KT P6SM VCSH SCT024 BKN035 BKN050
     FM221800 09018G27KT P6SM VCSH BKN025 OVC030=



000
FTUS42 KMFL 221511 AAA
TAFMIA
TAF AMD
KMIA 221511Z 2215/2312 08015G25KT P6SM VCSH BKN040 OVC060
     FM221800 09015G25KT P6SM VCSH BKN025 OVC050=



000
FTUS42 KMFL 221511 AAA
TAFPBI
TAF AMD
KPBI 221511Z 2215/2312 08017G27KT P6SM VCSH BKN030 OVC050
     FM221800 09015G26KT P6SM VCSH SCT020 BKN030=



000
FTUS42 KMFL 221511 AAA
TAFAPF
TAF AMD
KAPF 221511Z 2215/2312 09013G22KT P6SM SCT040
     FM221800 11012G23KT P6SM SCT025 OVC040=



000
FTUS42 KMFL 221511 AAA
TAFMIA
TAF AMD
KMIA 221511Z 2215/2312 08015G25KT P6SM VCSH BKN040 OVC060
     FM221800 09015G25KT P6SM VCSH BKN025 OVC050=



000
FTUS42 KMFL 221511 AAA
TAFAPF
TAF AMD
KAPF 221511Z 2215/2312 09013G22KT P6SM SCT040
     FM221800 11012G23KT P6SM SCT025 OVC040=



000
FTUS42 KMFL 221511 AAA
TAFFLL
TAF AMD
KFLL 221511Z 2215/2312 09018G26KT P6SM VCSH SCT024 BKN035 BKN050
     FM221800 09018G27KT P6SM VCSH BKN025 OVC030=



000
FTUS42 KMFL 221511 AAA
TAFPBI
TAF AMD
KPBI 221511Z 2215/2312 08017G27KT P6SM VCSH BKN030 OVC050
     FM221800 09015G26KT P6SM VCSH SCT020 BKN030=



000
FTUS42 KMFL 221134
TAFAPF
TAF
KAPF 221134Z 2212/2312 07010G15KT P6SM SCT040 BKN250
     FM221500 09013G22KT P6SM VCSH SCT020 BKN030=



000
FTUS42 KMFL 221134
TAFPBI
TAF
KPBI 221134Z 2212/2312 08017G27KT P6SM VCSH SCT025 BKN035 BKN050
     FM221300 09015G26KT P6SM VCSH SCT020 BKN030=



000
FTUS42 KMFL 221134
TAFFLL
TAF
KFLL 221134Z 2212/2312 09018G26KT P6SM VCSH SCT024 BKN035 BKN050
     FM221300 09018G27KT P6SM VCSH BKN025=



000
FTUS42 KMFL 221134
TAFMIA
TAF
KMIA 221134Z 2212/2312 07013G21KT P6SM VCSH SCT027 BKN050
     FM221300 09015G25KT P6SM VCSH BKN025=



000
FTUS42 KMFL 221134
TAFPBI
TAF
KPBI 221134Z 2212/2312 08017G27KT P6SM VCSH SCT025 BKN035 BKN050
     FM221300 09015G26KT P6SM VCSH SCT020 BKN030=



000
FTUS42 KMFL 221134
TAFMIA
TAF
KMIA 221134Z 2212/2312 07013G21KT P6SM VCSH SCT027 BKN050
     FM221300 09015G25KT P6SM VCSH BKN025=



000
FTUS42 KMFL 221134
TAFAPF
TAF
KAPF 221134Z 2212/2312 07010G15KT P6SM SCT040 BKN250
     FM221500 09013G22KT P6SM VCSH SCT020 BKN030=



000
FTUS42 KMFL 221134
TAFFLL
TAF
KFLL 221134Z 2212/2312 09018G26KT P6SM VCSH SCT024 BKN035 BKN050
     FM221300 09018G27KT P6SM VCSH BKN025=



000
FTUS42 KMFL 220919 AAA
TAFAPF
TAF AMD
KAPF 220919Z 2209/2306 07010G15KT P6SM SCT040 BKN250
     FM221500 09013G22KT P6SM VCSH SCT020 BKN030=



000
FTUS42 KMFL 220919 AAA
TAFAPF
TAF AMD
KAPF 220919Z 2209/2306 07010G15KT P6SM SCT040 BKN250
     FM221500 09013G22KT P6SM VCSH SCT020 BKN030=



000
FTUS42 KMFL 220917 AAA
TAFMIA
TAF AMD
KMIA 220917Z 2209/2306 07013G21KT P6SM VCSH SCT027 BKN050
     FM221300 09015G25KT P6SM VCSH BKN025=



000
FTUS42 KMFL 220917 AAA
TAFMIA
TAF AMD
KMIA 220917Z 2209/2306 07013G21KT P6SM VCSH SCT027 BKN050
     FM221300 09015G25KT P6SM VCSH BKN025=



000
FTUS42 KMFL 220914 AAA
TAFFLL
TAF AMD
KFLL 220914Z 2209/2306 09018G26KT P6SM VCSH SCT024 BKN035 BKN050
     FM221300 09018G27KT P6SM VCSH BKN025=



000
FTUS42 KMFL 220914 AAA
TAFFLL
TAF AMD
KFLL 220914Z 2209/2306 09018G26KT P6SM VCSH SCT024 BKN035 BKN050
     FM221300 09018G27KT P6SM VCSH BKN025=



000
FTUS42 KMFL 220910 AAA
TAFPBI
TAF AMD
KPBI 220910Z 2209/2306 08017G27KT P6SM VCSH SCT025 BKN035 BKN050
     FM221300 09015G26KT P6SM VCSH SCT020 BKN030=



000
FTUS42 KMFL 220910 AAA
TAFPBI
TAF AMD
KPBI 220910Z 2209/2306 08017G27KT P6SM VCSH SCT025 BKN035 BKN050
     FM221300 09015G26KT P6SM VCSH SCT020 BKN030=



000
FTUS42 KMFL 220535
TAFFLL
TAF
KFLL 220535Z 2206/2306 07017G26KT P6SM VCSH SCT020 BKN035
      TEMPO 2206/2210 -SHRA SCT015 BKN020
     FM221300 09018G27KT P6SM VCSH BKN025=



000
FTUS42 KMFL 220535
TAFPBI
TAF
KPBI 220535Z 2206/2306 07014G25KT P6SM VCSH FEW012 BKN025 BKN035
      TEMPO 2206/2210 -SHRA SCT010 BKN019
     FM221300 09015G26KT P6SM VCSH SCT020 BKN030=



000
FTUS42 KMFL 220535
TAFAPF
TAF
KAPF 220535Z 2206/2306 08013G22KT P6SM VCSH SCT013 SCT035 BKN090
      TEMPO 2206/2210 BKN012 BKN035 OVC070
     FM221500 09013G22KT P6SM VCSH SCT020 BKN030=



000
FTUS42 KMFL 220535
TAFMIA
TAF
KMIA 220535Z 2206/2306 07012G21KT P6SM VCSH SCT020 BKN035
      TEMPO 2206/2210 -SHRA SCT015 BKN020
     FM221300 09015G25KT P6SM VCSH BKN025=



000
FTUS42 KMFL 220535
TAFPBI
TAF
KPBI 220535Z 2206/2306 07014G25KT P6SM VCSH FEW012 BKN025 BKN035
      TEMPO 2206/2210 -SHRA SCT010 BKN019
     FM221300 09015G26KT P6SM VCSH SCT020 BKN030=



000
FTUS42 KMFL 220535
TAFMIA
TAF
KMIA 220535Z 2206/2306 07012G21KT P6SM VCSH SCT020 BKN035
      TEMPO 2206/2210 -SHRA SCT015 BKN020
     FM221300 09015G25KT P6SM VCSH BKN025=



000
FTUS42 KMFL 220535
TAFFLL
TAF
KFLL 220535Z 2206/2306 07017G26KT P6SM VCSH SCT020 BKN035
      TEMPO 2206/2210 -SHRA SCT015 BKN020
     FM221300 09018G27KT P6SM VCSH BKN025=



000
FTUS42 KMFL 220535
TAFAPF
TAF
KAPF 220535Z 2206/2306 08013G22KT P6SM VCSH SCT013 SCT035 BKN090
      TEMPO 2206/2210 BKN012 BKN035 OVC070
     FM221500 09013G22KT P6SM VCSH SCT020 BKN030=



000
FTUS42 KMFL 220400 AAB
TAFAPF
TAF AMD
KAPF 220400Z 2204/2224 07014G22KT P6SM VCSH SCT010 BKN090
      TEMPO 2204/2208 BKN010 BKN070
     FM221500 10014G22KT P6SM FEW025 BKN050=



000
FTUS42 KMFL 220400 AAB
TAFAPF
TAF AMD
KAPF 220400Z 2204/2224 07014G22KT P6SM VCSH SCT010 BKN090
      TEMPO 2204/2208 BKN010 BKN070
     FM221500 10014G22KT P6SM FEW025 BKN050=



000
FTUS42 KMFL 220356 AAB
TAFMIA
TAF AMD
KMIA 220356Z 2204/2224 06011G20KT P6SM SCT019 BKN035
      TEMPO 2204/2208 -SHRA SCT012 BKN019
     FM221300 10015G25KT P6SM VCSH OVC025=



000
FTUS42 KMFL 220356 AAB
TAFMIA
TAF AMD
KMIA 220356Z 2204/2224 06011G20KT P6SM SCT019 BKN035
      TEMPO 2204/2208 -SHRA SCT012 BKN019
     FM221300 10015G25KT P6SM VCSH OVC025=



000
FTUS42 KMFL 220356 AAB
TAFMIA
TAF AMD
KMIA 220356Z 2204/2224 06011G20KT P6SM SCT019 BKN035
      TEMPO 2204/2208 -SHRA SCT012 BKN019
     FM221300 10015G25KT P6SM VCSH OVC025=



000
FTUS42 KMFL 220356 AAB
TAFMIA
TAF AMD
KMIA 220356Z 2204/2224 06011G20KT P6SM SCT019 BKN035
      TEMPO 2204/2208 -SHRA SCT012 BKN019
     FM221300 10015G25KT P6SM VCSH OVC025=



000
FTUS42 KMFL 220353 AAB
TAFFLL
TAF AMD
KFLL 220353Z 2204/2224 07015G24KT P6SM VCSH SCT025 BKN035
      TEMPO 2204/2208 -SHRA SCT010 BKN019
     FM221300 10015G25KT P6SM VCSH OVC025=



000
FTUS42 KMFL 220353 AAB
TAFFLL
TAF AMD
KFLL 220353Z 2204/2224 07015G24KT P6SM VCSH SCT025 BKN035
      TEMPO 2204/2208 -SHRA SCT010 BKN019
     FM221300 10015G25KT P6SM VCSH OVC025=



000
FTUS42 KMFL 220349 AAB
TAFPBI
TAF AMD
KPBI 220349Z 2204/2224 08015G25KT P6SM VCSH FEW008 SCT020 BKN035
      TEMPO 2204/2208 -SHRA SCT010 BKN019
     FM221300 10015G25KT P6SM VCSH OVC025=



000
FTUS42 KMFL 220349 AAB
TAFPBI
TAF AMD
KPBI 220349Z 2204/2224 08015G25KT P6SM VCSH FEW008 SCT020 BKN035
      TEMPO 2204/2208 -SHRA SCT010 BKN019
     FM221300 10015G25KT P6SM VCSH OVC025=



000
FTUS42 KMFL 220252 AAA
TAFAPF
TAF AMD
KAPF 220252Z 2203/2224 06010KT P6SM SCT010 OVC035
     FM221500 10012G22KT P6SM FEW025 BKN050=



000
FTUS42 KMFL 220252 AAA
TAFAPF
TAF AMD
KAPF 220252Z 2203/2224 06010KT P6SM SCT010 OVC035
     FM221500 10012G22KT P6SM FEW025 BKN050=



000
FTUS42 KMFL 220249 AAA
TAFMIA
TAF AMD
KMIA 220249Z 2203/2224 05010G20KT P6SM VCSH BKN015
     FM221300 10015G25KT P6SM VCSH OVC025=



000
FTUS42 KMFL 220249 AAA
TAFMIA
TAF AMD
KMIA 220249Z 2203/2224 05010G20KT P6SM VCSH BKN015
     FM221300 10015G25KT P6SM VCSH OVC025=



000
FTUS42 KMFL 220247 AAA
TAFFLL
TAF AMD
KFLL 220247Z 2203/2224 07010G20KT P6SM VCSH SCT020 OVC030
     FM221300 10015G25KT P6SM VCSH OVC025=



000
FTUS42 KMFL 220247 AAA
TAFPBI
TAF AMD
KPBI 220247Z 2203/2224 08015G25KT P6SM VCSH SCT020 OVC040
     FM221300 10015G25KT P6SM VCSH OVC025=



000
FTUS42 KMFL 220247 AAA
TAFPBI
TAF AMD
KPBI 220247Z 2203/2224 08015G25KT P6SM VCSH SCT020 OVC040
     FM221300 10015G25KT P6SM VCSH OVC025=



000
FTUS42 KMFL 220247 AAA
TAFFLL
TAF AMD
KFLL 220247Z 2203/2224 07010G20KT P6SM VCSH SCT020 OVC030
     FM221300 10015G25KT P6SM VCSH OVC025=



000
FTUS42 KMFL 212340
TAFPBI
TAF
KPBI 212340Z 2200/2224 07015G25KT P6SM VCSH BKN020 OVC035
     FM221300 10015G25KT P6SM VCSH OVC025=



000
FTUS42 KMFL 212340
TAFFLL
TAF
KFLL 212340Z 2200/2224 05010G20KT P6SM VCSH BKN020 OVC030
     FM221300 10015G25KT P6SM VCSH OVC025=



000
FTUS42 KMFL 212340
TAFAPF
TAF
KAPF 212340Z 2200/2224 05010G20KT P6SM FEW025 OVC080
     FM221500 10012G22KT P6SM FEW025 BKN050=



000
FTUS42 KMFL 212340
TAFPBI
TAF
KPBI 212340Z 2200/2224 07015G25KT P6SM VCSH BKN020 OVC035
     FM221300 10015G25KT P6SM VCSH OVC025=



000
FTUS42 KMFL 212340
TAFAPF
TAF
KAPF 212340Z 2200/2224 05010G20KT P6SM FEW025 OVC080
     FM221500 10012G22KT P6SM FEW025 BKN050=



000
FTUS42 KMFL 212340
TAFFLL
TAF
KFLL 212340Z 2200/2224 05010G20KT P6SM VCSH BKN020 OVC030
     FM221300 10015G25KT P6SM VCSH OVC025=



000
FTUS42 KMFL 212340
TAFMIA
TAF
KMIA 212340Z 2200/2224 05010G20KT P6SM VCSH BKN015 OVC025
     FM221300 10015G25KT P6SM VCSH OVC025=



000
FTUS42 KMFL 212340
TAFMIA
TAF
KMIA 212340Z 2200/2224 05010G20KT P6SM VCSH BKN015 OVC025
     FM221300 10015G25KT P6SM VCSH OVC025=



000
FTUS42 KMFL 212122 AAC
TAFPBI
TAF AMD
KPBI 212122Z 2121/2218 06012G22KT P6SM VCSH BKN020 OVC035
     FM221100 08015G25KT P6SM OVC025=



000
FTUS42 KMFL 212122 AAC
TAFPBI
TAF AMD
KPBI 212122Z 2121/2218 06012G22KT P6SM VCSH BKN020 OVC035
     FM221100 08015G25KT P6SM OVC025=



000
FTUS42 KMFL 212114 AAB
TAFAPF
TAF AMD
KAPF 212114Z 2121/2218 07015G25KT P6SM SCT015 BKN070
     FM221400 10010G20KT P6SM OVC030=



000
FTUS42 KMFL 212114 AAB
TAFAPF
TAF AMD
KAPF 212114Z 2121/2218 07015G25KT P6SM SCT015 BKN070
     FM221400 10010G20KT P6SM OVC030=



000
FTUS42 KMFL 212107 AAB
TAFMIA
TAF AMD
KMIA 212107Z 2121/2218 05010G20KT P6SM VCSH BKN015 OVC025
     FM221200 08012G22KT P6SM BKN015 OVC025=



000
FTUS42 KMFL 212107 AAB
TAFMIA
TAF AMD
KMIA 212107Z 2121/2218 05010G20KT P6SM VCSH BKN015 OVC025
     FM221200 08012G22KT P6SM BKN015 OVC025=



000
FTUS42 KMFL 212105 AAC
TAFFLL
TAF AMD
KFLL 212105Z 2121/2218 06012G22KT P6SM SCT015 OVC025
     FM221200 10012G22KT P6SM BKN015 OVC025=



000
FTUS42 KMFL 212105 AAC
TAFFLL
TAF AMD
KFLL 212105Z 2121/2218 06012G22KT P6SM SCT015 OVC025
     FM221200 10012G22KT P6SM BKN015 OVC025=



000
FTUS42 KMFL 212024 AAB
TAFPBI
TAF AMD
KPBI 212024Z 2120/2218 07012G22KT P6SM VCSH BKN020 OVC035
     FM220200 07015G23KT P6SM VCSH OVC025
     FM221100 08014G22KT 5SM -RA OVC025=



000
FTUS42 KMFL 212024 AAB
TAFPBI
TAF AMD
KPBI 212024Z 2120/2218 07012G22KT P6SM VCSH BKN020 OVC035
     FM220200 07015G23KT P6SM VCSH OVC025
     FM221100 08014G22KT 5SM -RA OVC025=



000
FTUS42 KMFL 211959 AAB
TAFFLL
TAF AMD
KFLL 211959Z 2120/2218 06012G22KT P6SM -RA BKN015 OVC025
     FM212200 05012G19KT P6SM -RA OVC025
     FM221100 05013KT 4SM -RA BKN015 OVC025=



000
FTUS42 KMFL 211959 AAB
TAFFLL
TAF AMD
KFLL 211959Z 2120/2218 06012G22KT P6SM -RA BKN015 OVC025
     FM212200 05012G19KT P6SM -RA OVC025
     FM221100 05013KT 4SM -RA BKN015 OVC025=



000
FTUS42 KMFL 211957 AAA
TAFAPF
TAF AMD
KAPF 211957Z 2120/2218 07017G26KT P6SM BKN013 BKN070
     FM212300 05014G24KT P6SM OVC080
     FM220300 05010KT P6SM OVC030=



000
FTUS42 KMFL 211908 AAA
TAFMIA
TAF AMD
KMIA 211908Z 2119/2218 05011G18KT 3SM -RA BR BKN015 OVC025
      TEMPO 2119/2121 1SM RA BKN010
     FM212200 06012KT 4SM -RA OVC030
     FM220200 05011KT 5SM -RA OVC025
     FM221100 07013KT 3SM -RA SCT009 BKN015 OVC025=



000
FTUS42 KMFL 211908 AAA
TAFMIA
TAF AMD
KMIA 211908Z 2119/2218 05011G18KT 3SM -RA BR BKN015 OVC025
      TEMPO 2119/2121 1SM RA BKN010
     FM212200 06012KT 4SM -RA OVC030
     FM220200 05011KT 5SM -RA OVC025
     FM221100 07013KT 3SM -RA SCT009 BKN015 OVC025=



000
FTUS42 KMFL 211907 AAA
TAFFLL
TAF AMD
KFLL 211907Z 2119/2218 06012KT P6SM -RA BKN015 OVC025
     FM212200 05012G19KT P6SM -RA OVC025
     FM221100 05013KT 4SM -RA BKN015 OVC025=



000
FTUS42 KMFL 211907 AAA
TAFFLL
TAF AMD
KFLL 211907Z 2119/2218 06012KT P6SM -RA BKN015 OVC025
     FM212200 05012G19KT P6SM -RA OVC025
     FM221100 05013KT 4SM -RA BKN015 OVC025=



000
FTUS42 KMFL 211802 AAA
TAFPBI
TAF AMD
KPBI 211802Z 2118/2218 03012G21KT P6SM VCSH SCT015 OVC022
     FM220200 07015G23KT P6SM VCSH OVC025
     FM221100 08014G22KT 5SM -RA OVC025=



000
FTUS42 KMFL 211802 AAA
TAFPBI
TAF AMD
KPBI 211802Z 2118/2218 03012G21KT P6SM VCSH SCT015 OVC022
     FM220200 07015G23KT P6SM VCSH OVC025
     FM221100 08014G22KT 5SM -RA OVC025=



000
FTUS42 KMFL 211740
TAFMIA
TAF
KMIA 211740Z 2118/2218 05011G18KT 3SM -RA BR BKN015 OVC025
     FM212200 06012KT 4SM -RA OVC030
     FM220200 05011KT 5SM -RA OVC025
     FM221100 07013KT 3SM -RA SCT009 BKN015 OVC025=



000
FTUS42 KMFL 211740
TAFPBI
TAF
KPBI 211740Z 2118/2218 04011G22KT 4SM RA FEW013 BKN025 OVC030
     FM220200 06015G25KT P6SM VCSH OVC035=



000
FTUS42 KMFL 211740
TAFAPF
TAF
KAPF 211740Z 2118/2218 05015G21KT P6SM BKN040
     FM212300 05013KT P6SM OVC040
     FM220300 05010KT P6SM OVC030=



000
FTUS42 KMFL 211740
TAFAPF
TAF
KAPF 211740Z 2118/2218 05015G21KT P6SM BKN040
     FM212300 05013KT P6SM OVC040
     FM220300 05010KT P6SM OVC030=



000
FTUS42 KMFL 211740
TAFFLL
TAF
KFLL 211740Z 2118/2218 06012KT 3SM -RA BKN015 OVC025
     FM212200 05012G19KT 5SM -RA OVC025
     FM221100 05013KT 4SM -RA BKN015 OVC025=



000
FTUS42 KMFL 211740
TAFPBI
TAF
KPBI 211740Z 2118/2218 04011G22KT 4SM RA FEW013 BKN025 OVC030
     FM220200 06015G25KT P6SM VCSH OVC035=



000
FTUS42 KMFL 211740
TAFFLL
TAF
KFLL 211740Z 2118/2218 06012KT 3SM -RA BKN015 OVC025
     FM212200 05012G19KT 5SM -RA OVC025
     FM221100 05013KT 4SM -RA BKN015 OVC025=



000
FTUS42 KMFL 211740
TAFMIA
TAF
KMIA 211740Z 2118/2218 05011G18KT 3SM -RA BR BKN015 OVC025
     FM212200 06012KT 4SM -RA OVC030
     FM220200 05011KT 5SM -RA OVC025
     FM221100 07013KT 3SM -RA SCT009 BKN015 OVC025=



000
FTUS42 KMFL 211625 AAC
TAFPBI
TAF AMD
KPBI 211625Z 2116/2212 05012KT 4SM -RA OVC022
     FM212000 06015G25KT P6SM VCSH OVC035=



000
FTUS42 KMFL 211625 AAC
TAFPBI
TAF AMD
KPBI 211625Z 2116/2212 05012KT 4SM -RA OVC022
     FM212000 06015G25KT P6SM VCSH OVC035=



000
FTUS42 KMFL 211618 AAE
TAFMIA
TAF AMD
KMIA 211618Z 2116/2212 05009KT 3SM -RA SCT005 OVC020
      TEMPO 2116/2117 2SM -RA BKN005 OVC020
     FM211900 06012G21KT P6SM VCSH OVC025
     FM220000 05011KT P6SM OVC035=



000
FTUS42 KMFL 211618 AAE
TAFMIA
TAF AMD
KMIA 211618Z 2116/2212 05009KT 3SM -RA SCT005 OVC020
      TEMPO 2116/2117 2SM -RA BKN005 OVC020
     FM211900 06012G21KT P6SM VCSH OVC025
     FM220000 05011KT P6SM OVC035=



000
FTUS42 KMFL 211510 AAB
TAFPBI
TAF AMD
KPBI 211510Z 2115/2212 05012KT P6SM -RA OVC022
     FM211700 06015G25KT P6SM VCSH OVC035=



000
FTUS42 KMFL 211510 AAB
TAFPBI
TAF AMD
KPBI 211510Z 2115/2212 05012KT P6SM -RA OVC022
     FM211700 06015G25KT P6SM VCSH OVC035=



000
FTUS42 KMFL 211508 AAA
TAFFLL
TAF AMD
KFLL 211508Z 2115/2212 04011G20KT P6SM -RA BKN013 BKN020 OVC027
     FM211700 06015G25KT P6SM VCSH OVC030
     FM212200 05012KT P6SM OVC040=



000
FTUS42 KMFL 211508 AAA
TAFFLL
TAF AMD
KFLL 211508Z 2115/2212 04011G20KT P6SM -RA BKN013 BKN020 OVC027
     FM211700 06015G25KT P6SM VCSH OVC030
     FM212200 05012KT P6SM OVC040=



000
FTUS42 KMFL 211501 AAD
TAFMIA
TAF AMD
KMIA 211501Z 2115/2212 05009KT 5SM -RA SCT005 OVC020
      TEMPO 2115/2116 2SM -RA BKN005 OVC020
     FM211700 06012G21KT P6SM VCSH OVC025
     FM220000 05011KT P6SM OVC035=



000
FTUS42 KMFL 211501 AAD
TAFMIA
TAF AMD
KMIA 211501Z 2115/2212 05009KT 5SM -RA SCT005 OVC020
      TEMPO 2115/2116 2SM -RA BKN005 OVC020
     FM211700 06012G21KT P6SM VCSH OVC025
     FM220000 05011KT P6SM OVC035=



000
FTUS42 KMFL 211453 AAA
TAFAPF
TAF AMD
KAPF 211453Z 2115/2212 03012KT P6SM OVC040
     FM211700 06012G22KT P6SM OVC050
     FM212300 05011KT P6SM OVC040=



000
FTUS42 KMFL 211453 AAA
TAFAPF
TAF AMD
KAPF 211453Z 2115/2212 03012KT P6SM OVC040
     FM211700 06012G22KT P6SM OVC050
     FM212300 05011KT P6SM OVC040=



000
FTUS42 KMFL 211406 AAA
TAFPBI
TAF AMD
KPBI 211406Z 2114/2212 05015G22KT P6SM SCT026 BKN040 BKN045
     FM211600 06015G25KT P6SM VCSH BKN040=



000
FTUS42 KMFL 211406 AAA
TAFPBI
TAF AMD
KPBI 211406Z 2114/2212 05015G22KT P6SM SCT026 BKN040 BKN045
     FM211600 06015G25KT P6SM VCSH BKN040=



000
FTUS42 KMFL 211337 AAC
TAFMIA
TAF AMD
KMIA 211337Z 2114/2212 04007KT 2SM -RA BR BKN005 OVC018
     FM211400 05009KT 5SM -RA SCT005 OVC020
      TEMPO 2114/2115 2SM RA BKN005 OVC015
     FM211600 06015G25KT P6SM VCSH BKN040=



000
FTUS42 KMFL 211244 AAB
TAFMIA
TAF AMD
KMIA 211244Z 2113/2212 04007KT 2SM -RA BR BKN005 OVC018
     FM211300 05009KT 5SM -RA SCT005 OVC020
      TEMPO 2113/2114 2SM RA BKN005 OVC015
     FM211600 06015G25KT P6SM VCSH BKN040=



000
FTUS42 KMFL 211244 AAB
TAFMIA
TAF AMD
KMIA 211244Z 2113/2212 04007KT 2SM -RA BR BKN005 OVC018
     FM211300 05009KT 5SM -RA SCT005 OVC020
      TEMPO 2113/2114 2SM RA BKN005 OVC015
     FM211600 06015G25KT P6SM VCSH BKN040=



000
FTUS42 KMFL 211232 AAA
TAFMIA
TAF AMD
KMIA 211232Z 2113/2212 04007KT 2SM -RA BR BKN005 OVC018
     FM211300 05009KT 5SM -RA SCT005 OVC020
     FM211600 06015G25KT P6SM VCSH BKN040=



000
FTUS42 KMFL 211232 AAA
TAFMIA
TAF AMD
KMIA 211232Z 2113/2212 04007KT 2SM -RA BR BKN005 OVC018
     FM211300 05009KT 5SM -RA SCT005 OVC020
     FM211600 06015G25KT P6SM VCSH BKN040=



000
FTUS42 KMFL 211122
TAFAPF
TAF
KAPF 211122Z 2112/2212 06010KT P6SM BKN060 OVC070
     FM211600 06012G22KT P6SM BKN040=



000
FTUS42 KMFL 211122
TAFPBI
TAF
KPBI 211122Z 2112/2212 03008KT P6SM OVC060
     FM211600 06015G25KT P6SM VCSH BKN040=



000
FTUS42 KMFL 211122
TAFFLL
TAF
KFLL 211122Z 2112/2212 06009G15KT P6SM -RA SCT018 SCT024 OVC030
     FM211600 06015G25KT P6SM VCSH BKN040=



000
FTUS42 KMFL 211122
TAFMIA
TAF
KMIA 211122Z 2112/2212 04006KT P6SM -RA SCT009 OVC030
      TEMPO 2112/2114 3SM -RA BKN015
     FM211600 06015G25KT P6SM VCSH BKN040=



000
FTUS42 KMFL 211122
TAFMIA
TAF
KMIA 211122Z 2112/2212 04006KT P6SM -RA SCT009 OVC030
      TEMPO 2112/2114 3SM -RA BKN015
     FM211600 06015G25KT P6SM VCSH BKN040=



000
FTUS42 KMFL 211122
TAFPBI
TAF
KPBI 211122Z 2112/2212 03008KT P6SM OVC060
     FM211600 06015G25KT P6SM VCSH BKN040=



000
FTUS42 KMFL 211122
TAFAPF
TAF
KAPF 211122Z 2112/2212 06010KT P6SM BKN060 OVC070
     FM211600 06012G22KT P6SM BKN040=



000
FTUS42 KMFL 211122
TAFFLL
TAF
KFLL 211122Z 2112/2212 06009G15KT P6SM -RA SCT018 SCT024 OVC030
     FM211600 06015G25KT P6SM VCSH BKN040=



000
FTUS42 KMFL 211046 AAC
TAFMIA
TAF AMD
KMIA 211046Z 2111/2206 04006KT P6SM -RA SCT009 BKN018 OVC026
      TEMPO 2111/2114 3SM -RA BKN015
     FM211600 06015G25KT P6SM VCSH BKN040=



000
FTUS42 KMFL 211046 AAB
TAFPBI
TAF AMD
KPBI 211046Z 2111/2206 03008KT P6SM FEW024 OVC060
     FM211600 06015G25KT P6SM VCSH BKN040=



000
FTUS42 KMFL 211046 AAB
TAFAPF
TAF AMD
KAPF 211046Z 2111/2206 06010KT P6SM BKN060 OVC070
     FM211600 06012G22KT P6SM BKN040=



000
FTUS42 KMFL 211046 AAB
TAFFLL
TAF AMD
KFLL 211046Z 2111/2206 06014G20KT P6SM -RA SCT018 SCT024 OVC030
     FM211600 06015G25KT P6SM VCSH BKN040=



000
FTUS42 KMFL 210816 AAA
TAFPBI
TAF AMD
KPBI 210816Z 2108/2206 07010KT P6SM SCT030 SCT040 OVC060
     FM211600 06015G25KT P6SM VCSH BKN040=



000
FTUS42 KMFL 210816 AAA
TAFFLL
TAF AMD
KFLL 210816Z 2108/2206 06013G18KT P6SM FEW019 BKN026 OVC035
     FM211600 06015G25KT P6SM VCSH BKN040=



000
FTUS42 KMFL 210816 AAB
TAFMIA
TAF AMD
KMIA 210816Z 2108/2206 03007KT 1 1/2SM -RA BR SCT018 BKN024 OVC030
      TEMPO 2108/2112 3SM -RA BKN015
     FM211600 06015G25KT P6SM VCSH BKN040=



000
FTUS42 KMFL 210816 AAA
TAFAPF
TAF AMD
KAPF 210816Z 2108/2206 04010KT P6SM BKN060 BKN080 OVC100
     FM211600 06012G22KT P6SM BKN040=



000
FTUS42 KMFL 210816 AAA
TAFFLL
TAF AMD
KFLL 210816Z 2108/2206 06013G18KT P6SM FEW019 BKN026 OVC035
     FM211600 06015G25KT P6SM VCSH BKN040=



000
FTUS42 KMFL 210816 AAA
TAFPBI
TAF AMD
KPBI 210816Z 2108/2206 07010KT P6SM SCT030 SCT040 OVC060
     FM211600 06015G25KT P6SM VCSH BKN040=



000
FTUS42 KMFL 210816 AAA
TAFAPF
TAF AMD
KAPF 210816Z 2108/2206 04010KT P6SM BKN060 BKN080 OVC100
     FM211600 06012G22KT P6SM BKN040=



000
FTUS42 KMFL 210816 AAB
TAFMIA
TAF AMD
KMIA 210816Z 2108/2206 03007KT 1 1/2SM -RA BR SCT018 BKN024 OVC030
      TEMPO 2108/2112 3SM -RA BKN015
     FM211600 06015G25KT P6SM VCSH BKN040=



000
FTUS42 KMFL 210813 AAA
TAFMIA
TAF AMD
KMIA 210813Z 2108/2206 04006KT P6SM -RA SCT020 BKN040
      TEMPO 2108/2112 1SM -RA BKN015
     FM211600 06015G25KT P6SM VCSH BKN040=



000
FTUS42 KMFL 210813 AAA
TAFMIA
TAF AMD
KMIA 210813Z 2108/2206 04006KT P6SM -RA SCT020 BKN040
      TEMPO 2108/2112 1SM -RA BKN015
     FM211600 06015G25KT P6SM VCSH BKN040=



000
FTUS42 KMFL 210520
TAFFLL
TAF
KFLL 210520Z 2106/2206 06011KT P6SM FEW027 OVC035
     FM211600 06015G25KT P6SM VCSH BKN040=



000
FTUS42 KMFL 210520
TAFMIA
TAF
KMIA 210520Z 2106/2206 04006KT P6SM SCT030 BKN040
     FM211600 06015G25KT P6SM VCSH BKN040=



000
FTUS42 KMFL 210520
TAFPBI
TAF
KPBI 210520Z 2106/2206 07013KT P6SM FEW035 BKN070 BKN250
     FM211600 06015G25KT P6SM VCSH BKN040=



000
FTUS42 KMFL 210520
TAFPBI
TAF
KPBI 210520Z 2106/2206 07013KT P6SM FEW035 BKN070 BKN250
     FM211600 06015G25KT P6SM VCSH BKN040=



000
FTUS42 KMFL 210520
TAFMIA
TAF
KMIA 210520Z 2106/2206 04006KT P6SM SCT030 BKN040
     FM211600 06015G25KT P6SM VCSH BKN040=



000
FTUS42 KMFL 210520
TAFAPF
TAF
KAPF 210520Z 2106/2206 05010KT P6SM OVC070
     FM211600 06012G22KT P6SM BKN040=



000
FTUS42 KMFL 210520
TAFFLL
TAF
KFLL 210520Z 2106/2206 06011KT P6SM FEW027 OVC035
     FM211600 06015G25KT P6SM VCSH BKN040=



000
FTUS42 KMFL 210520
TAFAPF
TAF
KAPF 210520Z 2106/2206 05010KT P6SM OVC070
     FM211600 06012G22KT P6SM BKN040=



000
FTUS42 KMFL 210245 AAA
TAFFLL
TAF AMD
KFLL 210245Z 2103/2124 06011KT P6SM BKN035 OVC250
     FM211600 06015G25KT P6SM VCSH BKN040=



000
FTUS42 KMFL 210245 AAA
TAFMIA
TAF AMD
KMIA 210245Z 2103/2124 05010KT P6SM FEW040 SCT060 BKN140
     FM211600 06015G25KT P6SM VCSH BKN040=



000
FTUS42 KMFL 210245 AAA
TAFAPF
TAF AMD
KAPF 210245Z 2103/2124 04011G18KT P6SM OVC110
     FM211600 06012G22KT P6SM BKN040=



000
FTUS42 KMFL 210245 AAA
TAFPBI
TAF AMD
KPBI 210245Z 2103/2124 07012KT P6SM SCT035 BKN040 BKN050
     FM211600 06015G25KT P6SM VCSH BKN040=



000
FTUS42 KMFL 210245 AAA
TAFAPF
TAF AMD
KAPF 210245Z 2103/2124 04011G18KT P6SM OVC110
     FM211600 06012G22KT P6SM BKN040=



000
FTUS42 KMFL 210245 AAA
TAFFLL
TAF AMD
KFLL 210245Z 2103/2124 06011KT P6SM BKN035 OVC250
     FM211600 06015G25KT P6SM VCSH BKN040=



000
FTUS42 KMFL 210245 AAA
TAFMIA
TAF AMD
KMIA 210245Z 2103/2124 05010KT P6SM FEW040 SCT060 BKN140
     FM211600 06015G25KT P6SM VCSH BKN040=



000
FTUS42 KMFL 210245 AAA
TAFPBI
TAF AMD
KPBI 210245Z 2103/2124 07012KT P6SM SCT035 BKN040 BKN050
     FM211600 06015G25KT P6SM VCSH BKN040=



000
FTUS42 KMFL 202336
TAFPBI
TAF
KPBI 202336Z 2100/2124 05012KT P6SM SCT035 BKN150
     FM211600 06015G25KT P6SM VCSH BKN040=



000
FTUS42 KMFL 202336
TAFAPF
TAF
KAPF 202336Z 2100/2124 04012KT P6SM SCT045
     FM211600 06012G22KT P6SM BKN040=



000
FTUS42 KMFL 202336
TAFFLL
TAF
KFLL 202336Z 2100/2124 06012KT P6SM SCT035 BKN150
     FM211600 06015G25KT P6SM VCSH BKN040=



000
FTUS42 KMFL 202336
TAFMIA
TAF
KMIA 202336Z 2100/2124 05012KT P6SM SCT035 BKN150
     FM211600 06015G25KT P6SM VCSH BKN040=



000
FTUS42 KMFL 202336
TAFFLL
TAF
KFLL 202336Z 2100/2124 06012KT P6SM SCT035 BKN150
     FM211600 06015G25KT P6SM VCSH BKN040=



000
FTUS42 KMFL 202336
TAFAPF
TAF
KAPF 202336Z 2100/2124 04012KT P6SM SCT045
     FM211600 06012G22KT P6SM BKN040=



000
FTUS42 KMFL 202336
TAFPBI
TAF
KPBI 202336Z 2100/2124 05012KT P6SM SCT035 BKN150
     FM211600 06015G25KT P6SM VCSH BKN040=



000
FTUS42 KMFL 202336
TAFMIA
TAF
KMIA 202336Z 2100/2124 05012KT P6SM SCT035 BKN150
     FM211600 06015G25KT P6SM VCSH BKN040=



000
FTUS42 KMFL 202117 AAA
TAFAPF
TAF AMD
KAPF 202117Z 2021/2118 07010G20KT P6SM FEW050
     FM210100 05009KT P6SM OVC070
     FM211500 06015KT P6SM OVC060=



000
FTUS42 KMFL 202117 AAA
TAFAPF
TAF AMD
KAPF 202117Z 2021/2118 07010G20KT P6SM FEW050
     FM210100 05009KT P6SM OVC070
     FM211500 06015KT P6SM OVC060=



000
FTUS42 KMFL 202115 AAA
TAFMIA
TAF AMD
KMIA 202115Z 2021/2118 05010G20KT P6SM SCT030 BKN080 BKN130
     FM210600 04010KT P6SM VCSH SCT025 BKN035
     FM211400 06010G20KT P6SM VCSH SCT020 BKN030=



000
FTUS42 KMFL 202115 AAA
TAFMIA
TAF AMD
KMIA 202115Z 2021/2118 05010G20KT P6SM SCT030 BKN080 BKN130
     FM210600 04010KT P6SM VCSH SCT025 BKN035
     FM211400 06010G20KT P6SM VCSH SCT020 BKN030=



000
FTUS42 KMFL 202113 AAA
TAFFLL
TAF AMD
KFLL 202113Z 2021/2118 04010G20KT P6SM BKN035 BKN100
     FM210600 04012KT P6SM VCSH SCT025 BKN035
     FM211400 06015G25KT P6SM VCSH SCT020 BKN030=



000
FTUS42 KMFL 202113 AAA
TAFFLL
TAF AMD
KFLL 202113Z 2021/2118 04010G20KT P6SM BKN035 BKN100
     FM210600 04012KT P6SM VCSH SCT025 BKN035
     FM211400 06015G25KT P6SM VCSH SCT020 BKN030=



000
FTUS42 KMFL 202107 AAA
TAFPBI
TAF AMD
KPBI 202107Z 2021/2118 04012KT P6SM SCT040 BKN150
     FM210100 04011KT P6SM BKN040
     FM211400 06015G25KT P6SM VCSH BKN040=



000
FTUS42 KMFL 201738
TAFAPF
TAF
KAPF 201738Z 2018/2118 05015KT P6SM SCT080
     FM210100 05009KT P6SM OVC070
     FM211500 06015KT P6SM OVC060=



000
FTUS42 KMFL 201738
TAFMIA
TAF
KMIA 201738Z 2018/2118 05010G20KT P6SM SCT030 BKN080 BKN130
      TEMPO 2018/2020 BKN030
     FM210000 04010KT P6SM VCSH SCT025 BKN035
     FM211400 06010G20KT P6SM VCSH SCT020 BKN030=



000
FTUS42 KMFL 201738
TAFFLL
TAF
KFLL 201738Z 2018/2118 04013G23KT P6SM BKN035 BKN050
     FM210000 04012KT P6SM VCSH SCT025 BKN035
     FM211400 06015G25KT P6SM VCSH SCT020 BKN030=



000
FTUS42 KMFL 201738
TAFPBI
TAF
KPBI 201738Z 2018/2118 04016KT P6SM SCT040 SCT060 BKN250
     FM210100 04011KT P6SM BKN040
     FM211400 06015G25KT P6SM VCSH BKN040=



000
FTUS42 KMFL 201738
TAFAPF
TAF
KAPF 201738Z 2018/2118 05015KT P6SM SCT080
     FM210100 05009KT P6SM OVC070
     FM211500 06015KT P6SM OVC060=



000
FTUS42 KMFL 201738
TAFPBI
TAF
KPBI 201738Z 2018/2118 04016KT P6SM SCT040 SCT060 BKN250
     FM210100 04011KT P6SM BKN040
     FM211400 06015G25KT P6SM VCSH BKN040=



000
FTUS42 KMFL 201738
TAFMIA
TAF
KMIA 201738Z 2018/2118 05010G20KT P6SM SCT030 BKN080 BKN130
      TEMPO 2018/2020 BKN030
     FM210000 04010KT P6SM VCSH SCT025 BKN035
     FM211400 06010G20KT P6SM VCSH SCT020 BKN030=



000
FTUS42 KMFL 201738
TAFFLL
TAF
KFLL 201738Z 2018/2118 04013G23KT P6SM BKN035 BKN050
     FM210000 04012KT P6SM VCSH SCT025 BKN035
     FM211400 06015G25KT P6SM VCSH SCT020 BKN030=



000
FTUS42 KMFL 201504 AAA
TAFFLL
TAF AMD
KFLL 201504Z 2015/2112 01010KT P6SM BKN035 BKN050 BKN070
     FM201800 04012G22KT P6SM BKN040 BKN060
     FM210100 04008KT P6SM BKN050=



000
FTUS42 KMFL 201504 AAA
TAFFLL
TAF AMD
KFLL 201504Z 2015/2112 01010KT P6SM BKN035 BKN050 BKN070
     FM201800 04012G22KT P6SM BKN040 BKN060
     FM210100 04008KT P6SM BKN050=



000
FTUS42 KMFL 201504 AAA
TAFPBI
TAF AMD
KPBI 201504Z 2015/2112 04010G20KT P6SM FEW020 BKN050
     FM210100 04008KT P6SM BKN050=



000
FTUS42 KMFL 201504 AAA
TAFMIA
TAF AMD
KMIA 201504Z 2015/2112 02008KT P6SM FEW040 BKN080 BKN130
     FM201800 05010G20KT P6SM SCT040 BKN080
     FM210100 04007KT P6SM BKN050=



000
FTUS42 KMFL 201504 AAA
TAFAPF
TAF AMD
KAPF 201504Z 2015/2112 05013KT P6SM SCT080
     FM210100 05008KT P6SM OVC070=



000
FTUS42 KMFL 201504 AAA
TAFPBI
TAF AMD
KPBI 201504Z 2015/2112 04010G20KT P6SM FEW020 BKN050
     FM210100 04008KT P6SM BKN050=



000
FTUS42 KMFL 201504 AAA
TAFAPF
TAF AMD
KAPF 201504Z 2015/2112 05013KT P6SM SCT080
     FM210100 05008KT P6SM OVC070=



000
FTUS42 KMFL 201504 AAA
TAFMIA
TAF AMD
KMIA 201504Z 2015/2112 02008KT P6SM FEW040 BKN080 BKN130
     FM201800 05010G20KT P6SM SCT040 BKN080
     FM210100 04007KT P6SM BKN050=



    US Dept of Commerce
    National Oceanic and Atmospheric Administration
    National Weather Service
    1325 East West Highway
    Silver Spring, MD 20910
    Page Author: NWS Internet Services Team
Disclaimer
Information Quality
Credits
Glossary
Privacy Policy
Freedom of Information Act (FOIA)
About Us
Career Opportunities